Monitor, WA

2:12 AM PDT on October 21, 2014 (GMT -0700)
Pangborn Memorial | Change Station
CLOSE
Current Station
Airport
Location: Wenatchee,
Elevation: 1247 ft
Nearby Weather Stations

Elev 1247 ft 47.40 °N, 120.21 °W | Updated 17 minutes ago

Partly Cloudy
Partly Cloudy
52 °F
Feels Like 52 °F
N
4
Wind Variable Wind from East

Today
High -- | Low -- °F
--% Chance of Precip.
Yesterday
High -- | Low -- °F
Precip. -- in
7:29 AM 6:02 PM
Waning Crescent, 6% visible
Pressure 29.80 in
Visibility 10.0 miles
Clouds Mostly Cloudy 1300 ft
Dew Point 47 °F
Humidity 83%
Rainfall 0.00 in
Snow Depth Not available.
UV 0 out of 12
Pollen .40 out of 12
Air Quality Not available.
Flu Activity Sporadic
METAR KEAT 210855Z AUTO 10003KT 10SM BKN013 11/08 A2980 RMK AO2 SLP091 T01110083 52004

More Conditions Fewer Conditions

Pressure 29.80 in
Visibility 10.0 miles
Clouds Mostly Cloudy 1300 ft
Dew Point 47 °F
Humidity 83%
Rainfall 0.00 in
Snow Depth Not available.
UV 0 out of 12
Pollen .40 out of 12
Air Quality Not available.
Flu Activity Sporadic
METAR KEAT 210855Z AUTO 10003KT 10SM BKN013 11/08 A2980 RMK AO2 SLP091 T01110083 52004

More Conditions Fewer Conditions

10-Day Weather Forecast

Almanac

Astronomy

Oct. 21, 2014 Rise Set
Actual Time 7:29 AM PDT 6:02 PM PDT
Civil Twilight 6:57 AM PDT 6:33 PM PDT
Nautical Twilight 6:22 AM PDT 7:09 PM PDT
Astronomical Twilight 5:46 AM PDT 7:45 PM PDT
Moon 5:09 AM PDT 5:06 PM PDT
Length of Visible Light 11h 36m
Length of Day
10h 33m
Tomorrow will be 3m 14s shorter.
Waning Crescent, 6% of the Moon is Illuminated
Today
Waning Crescent
Oct 23
New
Oct 30
First Quarter
Nov 6
Full
Nov 14
Last Quarter

Today's Extremes

State Highs State Lows

Community

WunderPhotos

Upload Photos

1,763,619 photos uploaded!

Nearby

Snow Depth

Station Depth Elevation
Blewett Pass 0 in 4270 ft
Grouse Camp 0 in 5380 ft
Trough 0 in 5300 ft
Fish Lake 0 in 3371 ft
Sasse Ridge 0 in 4200 ft

Earthquake Activity

City Distance Mag. Time & Date
No recent earthquake activity has been reported nearby.
Minimum magnitude displayed is 2.5.

Coastal Water Temperatures

Place Temperature
No Stations Reporting

Nearby Weather Stations